Time;durP1;ratioP1;P1;durP2;ratioP2;P2;SDS_P1;SDS_P2;PMS_P1;PMS_P2;Temp;Humidity;BMP_temperature;BMP_pressure;BME280_temperature;BME280_humidity;BME280_pressure;Samples;Min_cycle;Max_cycle;Signal;HPM_P1;HPM_P2
2021/03/06 00:02:15;;;;;;;8.90;7.03;;;-2.60;99.90;;;;;;5009471;28;20509;-73
2021/03/06 00:04:41;;;;;;;10.13;6.97;;;-2.70;99.90;;;;;;5011499;28;20520;-72
2021/03/06 00:07:07;;;;;;;9.33;7.37;;;-2.70;99.90;;;;;;5011363;28;20296;-73
2021/03/06 00:09:32;;;;;;;9.50;8.47;;;-2.70;99.90;;;;;;5009457;28;20615;-73
2021/03/06 00:11:58;;;;;;;11.33;8.10;;;-2.80;99.90;;;;;;5007991;28;20604;-73
2021/03/06 00:14:24;;;;;;;11.80;8.30;;;-2.80;99.90;;;;;;5012416;28;20231;-72
2021/03/06 00:16:49;;;;;;;9.83;7.40;;;-2.80;99.90;;;;;;5010107;28;20192;-72
2021/03/06 00:19:15;;;;;;;12.33;9.03;;;-2.80;99.90;;;;;;5009867;28;20190;-72
2021/03/06 00:21:40;;;;;;;16.17;8.70;;;-2.80;99.90;;;;;;5009452;28;20179;-73
2021/03/06 00:24:07;;;;;;;8.20;7.40;;;-2.90;99.90;;;;;;5010069;28;20186;-72
2021/03/06 00:26:33;;;;;;;9.30;7.10;;;-2.90;99.90;;;;;;5012127;28;20198;-72
2021/03/06 00:28:58;;;;;;;10.93;7.90;;;-2.90;99.90;;;;;;5008908;28;20822;-73
2021/03/06 00:31:24;;;;;;;10.13;7.57;;;-3.00;99.90;;;;;;5007763;28;20249;-72
2021/03/06 00:33:50;;;;;;;9.97;7.70;;;-3.00;99.90;;;;;;5004123;28;20203;-73
2021/03/06 00:36:15;;;;;;;14.17;7.53;;;-3.00;99.90;;;;;;5011393;28;20202;-72
2021/03/06 00:38:41;;;;;;;11.10;7.80;;;-3.00;99.90;;;;;;5010630;28;20190;-71
2021/03/06 00:41:06;;;;;;;12.07;7.60;;;-3.00;99.90;;;;;;5009998;28;20189;-71
2021/03/06 00:43:32;;;;;;;9.80;7.57;;;-3.00;99.90;;;;;;5008435;28;20254;-71
2021/03/06 00:45:58;;;;;;;8.07;7.27;;;-3.00;99.90;;;;;;5009658;28;20532;-71
2021/03/06 00:48:24;;;;;;;12.63;7.30;;;-3.10;99.90;;;;;;5010523;28;20250;-71
2021/03/06 00:50:49;;;;;;;9.20;7.27;;;-3.10;99.90;;;;;;5008284;28;20258;-71
2021/03/06 00:53:15;;;;;;;7.63;6.97;;;-3.10;99.90;;;;;;5008893;28;20184;-72
2021/03/06 00:55:41;;;;;;;10.77;7.47;;;-3.10;99.90;;;;;;5010607;28;20265;-71
2021/03/06 00:58:06;;;;;;;10.07;6.50;;;-3.20;99.90;;;;;;5013678;28;20627;-71
2021/03/06 01:00:32;;;;;;;12.50;7.50;;;-3.20;99.90;;;;;;5014868;28;20191;-71
2021/03/06 01:02:58;;;;;;;9.80;6.60;;;-3.20;99.90;;;;;;5012755;28;20520;-71
2021/03/06 01:05:23;;;;;;;9.60;7.07;;;-3.20;99.90;;;;;;5011368;28;20294;-71
2021/03/06 01:07:49;;;;;;;7.57;6.53;;;-3.20;99.90;;;;;;5007857;28;20673;-72
2021/03/06 01:10:21;;;;;;;9.63;7.57;;;-3.20;99.90;;;;;;5013568;28;20529;-71
2021/03/06 01:12:47;;;;;;;8.60;5.80;;;-3.20;99.90;;;;;;4994489;28;20460;-72
2021/03/06 01:15:13;;;;;;;10.70;6.87;;;-3.30;99.90;;;;;;4995633;28;20433;-72
2021/03/06 01:17:38;;;;;;;6.30;5.37;;;-3.30;99.90;;;;;;4993181;28;20267;-72
2021/03/06 01:20:05;;;;;;;5.87;5.30;;;-3.30;99.90;;;;;;4993260;28;20443;-72
2021/03/06 01:22:31;;;;;;;7.50;5.40;;;-3.30;99.90;;;;;;4995160;28;20188;-72
2021/03/06 01:24:57;;;;;;;5.77;5.13;;;-3.40;99.90;;;;;;4988703;28;20452;-72
2021/03/06 01:27:23;;;;;;;6.00;5.20;;;-3.40;99.90;;;;;;4987751;28;20839;-72
2021/03/06 01:29:48;;;;;;;5.67;5.03;;;-3.40;99.90;;;;;;4993161;28;20210;-72
2021/03/06 01:32:14;;;;;;;6.83;4.87;;;-3.40;99.90;;;;;;4992919;28;20241;-72
2021/03/06 01:34:40;;;;;;;7.73;5.17;;;-3.40;99.90;;;;;;4992568;28;20527;-72
2021/03/06 01:37:06;;;;;;;10.97;5.60;;;-3.50;99.90;;;;;;4990210;28;20183;-72
2021/03/06 01:39:32;;;;;;;11.60;6.50;;;-3.50;99.90;;;;;;4990792;28;20180;-73
2021/03/06 01:41:58;;;;;;;13.73;6.50;;;-3.50;99.90;;;;;;4993579;28;20211;-71
2021/03/06 01:44:24;;;;;;;8.40;5.90;;;-3.50;99.90;;;;;;4995295;28;20437;-72
2021/03/06 01:46:50;;;;;;;8.20;5.00;;;-3.60;99.90;;;;;;4992254;28;20196;-72
2021/03/06 01:49:15;;;;;;;6.27;5.20;;;-3.60;99.90;;;;;;4991199;28;20449;-72
2021/03/06 01:51:42;;;;;;;5.53;4.80;;;-3.60;99.90;;;;;;4987482;28;20463;-72
2021/03/06 01:54:10;;;;;;;5.83;5.27;;;-3.60;99.90;;;;;;4992833;28;20175;-72
2021/03/06 01:56:35;;;;;;;6.47;4.93;;;-3.60;99.90;;;;;;4990766;28;20596;-72
2021/03/06 01:59:01;;;;;;;4.50;4.10;;;-3.60;99.90;;;;;;4993371;28;20532;-72
2021/03/06 02:01:27;;;;;;;5.33;4.30;;;-3.60;99.90;;;;;;4991476;28;20238;-72
2021/03/06 02:03:53;;;;;;;7.17;4.10;;;-3.60;99.90;;;;;;4992063;28;20466;-72
2021/03/06 02:06:19;;;;;;;6.23;5.73;;;-3.60;99.90;;;;;;4995229;28;20560;-72
2021/03/06 02:08:46;;;;;;;7.43;4.13;;;-3.60;99.90;;;;;;4991415;28;20299;-72
2021/03/06 02:11:18;;;;;;;7.73;3.40;;;-3.70;99.90;;;;;;4992348;28;20191;-71
2021/03/06 02:14:13;;;;;;;5.43;3.93;;;-3.60;99.90;;;;;;4993320;28;20470;-72
2021/03/06 02:16:46;;;;;;;4.97;4.20;;;-3.70;99.90;;;;;;4992117;28;20492;-72
2021/03/06 02:19:30;;;;;;;7.63;4.00;;;-3.60;99.90;;;;;;4993977;28;20469;-72
2021/03/06 02:22:17;;;;;;;4.90;3.63;;;-3.60;99.90;;;;;;4994318;28;20453;-71
2021/03/06 02:25:01;;;;;;;5.10;4.13;;;-3.50;99.90;;;;;;4993596;28;20537;-72
2021/03/06 02:28:07;;;;;;;7.33;5.10;;;-3.50;99.90;;;;;;4991835;28;20476;-72
2021/03/06 02:30:33;;;;;;;9.33;4.47;;;-3.50;99.90;;;;;;4982536;28;20843;-71
2021/03/06 02:33:01;;;;;;;5.10;4.70;;;-3.50;99.90;;;;;;4992593;28;20521;-72
2021/03/06 02:35:32;;;;;;;4.47;4.07;;;-3.50;99.90;;;;;;4993284;28;20894;-72
2021/03/06 02:38:06;;;;;;;4.47;4.00;;;-3.50;99.90;;;;;;4993896;28;20440;-72
2021/03/06 02:40:32;;;;;;;6.13;4.60;;;-3.50;99.90;;;;;;4992150;28;20430;-72
2021/03/06 02:43:00;;;;;;;7.53;4.07;;;-3.50;99.90;;;;;;4994625;28;20502;-73
2021/03/06 02:45:27;;;;;;;5.10;3.87;;;-3.40;99.90;;;;;;4992418;28;20497;-72
2021/03/06 02:47:55;;;;;;;5.30;3.70;;;-3.40;99.90;;;;;;4992681;28;20473;-72
2021/03/06 02:50:21;;;;;;;4.50;3.57;;;-3.40;99.90;;;;;;4992419;28;20434;-72
2021/03/06 02:52:46;;;;;;;6.40;4.27;;;-3.30;99.90;;;;;;4994351;28;20845;-72
2021/03/06 02:55:13;;;;;;;4.63;3.40;;;-3.30;99.90;;;;;;4992324;28;20193;-71
2021/03/06 02:58:01;;;;;;;3.30;3.10;;;-3.20;99.90;;;;;;4993290;28;20275;-72
2021/03/06 03:00:31;;;;;;;3.40;3.10;;;-3.30;99.90;;;;;;4982377;28;20481;-72
2021/03/06 03:03:17;;;;;;;3.17;2.87;;;-3.30;99.90;;;;;;4991510;28;20415;-71
2021/03/06 03:05:46;;;;;;;3.37;2.77;;;-3.30;99.90;;;;;;4992814;28;20446;-72
2021/03/06 03:08:20;;;;;;;2.77;2.57;;;-3.30;99.90;;;;;;4991231;28;20442;-72
2021/03/06 03:10:55;;;;;;;3.93;3.00;;;-3.30;99.90;;;;;;4990390;28;20435;-72
2021/03/06 03:13:43;;;;;;;2.90;2.70;;;-3.30;99.90;;;;;;4992525;28;20423;-72
2021/03/06 03:16:17;;;;;;;3.50;2.93;;;-3.30;99.90;;;;;;4992389;28;20871;-72
2021/03/06 03:19:03;;;;;;;4.70;2.73;;;-3.30;99.90;;;;;;4991801;28;20503;-72
2021/03/06 03:21:33;;;;;;;8.10;2.93;;;-3.30;99.90;;;;;;4992717;28;20435;-72
2021/03/06 03:24:05;;;;;;;3.37;3.07;;;-3.30;99.90;;;;;;4992484;28;20442;-72
2021/03/06 03:26:32;;;;;;;3.00;2.30;;;-3.30;99.90;;;;;;4991261;28;20455;-72
2021/03/06 03:28:58;;;;;;;6.33;3.30;;;-3.30;99.90;;;;;;4988632;28;20543;-72
2021/03/06 03:31:27;;;;;;;5.47;3.27;;;-3.30;99.90;;;;;;4991978;28;20450;-71
2021/03/06 03:33:53;;;;;;;4.30;2.20;;;-3.20;99.90;;;;;;4992053;28;20430;-72
2021/03/06 03:36:24;;;;;;;3.87;2.73;;;-3.20;99.90;;;;;;4990546;28;21000;-72
2021/03/06 03:38:50;;;;;;;7.83;2.73;;;-3.20;99.90;;;;;;4993551;28;20423;-72
2021/03/06 03:41:17;;;;;;;2.57;2.30;;;-3.20;99.90;;;;;;4991983;28;20427;-72
2021/03/06 03:43:43;;;;;;;5.13;2.80;;;-3.20;99.90;;;;;;4992380;28;20475;-72
2021/03/06 03:46:10;;;;;;;5.60;2.70;;;-3.10;99.90;;;;;;4991446;28;20468;-72
2021/03/06 03:48:39;;;;;;;6.70;3.00;;;-3.00;99.90;;;;;;4992343;28;20550;-72
2021/03/06 03:51:05;;;;;;;6.40;2.67;;;-3.00;99.90;;;;;;4991433;28;20431;-72
2021/03/06 03:53:31;;;;;;;2.80;1.90;;;-2.90;99.90;;;;;;4990925;28;20481;-72
2021/03/06 03:55:59;;;;;;;8.57;2.03;;;-2.90;99.90;;;;;;4991801;28;20429;-72
2021/03/06 03:58:25;;;;;;;2.13;1.63;;;-2.90;99.90;;;;;;4992527;28;20442;-72
2021/03/06 04:01:01;;;;;;;4.67;2.33;;;-2.80;99.90;;;;;;4988436;28;20427;-72
2021/03/06 04:03:27;;;;;;;2.40;2.20;;;-2.60;99.90;;;;;;4992545;28;20178;-72
2021/03/06 04:05:55;;;;;;;4.03;1.90;;;-2.50;99.90;;;;;;4992428;28;20426;-72
2021/03/06 04:08:20;;;;;;;5.80;2.50;;;-2.40;99.90;;;;;;4992854;28;20887;-72
2021/03/06 04:10:46;;;;;;;5.23;2.13;;;-2.40;99.90;;;;;;4987975;28;20466;-72
2021/03/06 04:13:12;;;;;;;2.53;2.10;;;-2.20;99.90;;;;;;4990581;28;20214;-74
2021/03/06 04:15:37;;;;;;;3.60;2.40;;;-2.10;99.90;;;;;;4992248;28;20273;-74
2021/03/06 04:18:04;;;;;;;3.83;1.97;;;-2.10;99.90;;;;;;4990231;28;20602;-74
2021/03/06 04:20:31;;;;;;;3.70;2.27;;;-2.10;99.90;;;;;;4992271;28;20282;-74
2021/03/06 04:22:57;;;;;;;3.10;2.37;;;-2.00;99.90;;;;;;4993598;28;20773;-74
2021/03/06 04:25:23;;;;;;;2.80;2.60;;;-2.00;99.90;;;;;;4991071;28;20825;-74
2021/03/06 04:27:48;;;;;;;3.50;1.90;;;-1.90;99.90;;;;;;4989104;28;20482;-74
2021/03/06 04:30:15;;;;;;;3.90;1.83;;;-1.70;99.90;;;;;;4991512;28;20638;-74
2021/03/06 04:32:41;;;;;;;2.90;2.33;;;-1.60;99.90;;;;;;4991295;28;20231;-74
2021/03/06 04:35:08;;;;;;;4.23;2.10;;;-1.60;99.90;;;;;;4991900;28;20436;-74
2021/03/06 04:37:34;;;;;;;8.67;3.30;;;-1.60;99.90;;;;;;4990847;28;20657;-74
2021/03/06 04:40:00;;;;;;;4.17;2.33;;;-1.50;99.90;;;;;;4989899;28;20502;-74
2021/03/06 04:42:26;;;;;;;2.50;2.30;;;-1.50;99.90;;;;;;4991771;28;20433;-74
2021/03/06 04:44:52;;;;;;;2.17;2.07;;;-1.50;99.90;;;;;;4990612;28;20634;-74
2021/03/06 04:47:18;;;;;;;2.47;1.60;;;-1.40;99.90;;;;;;4991058;28;20205;-74
2021/03/06 04:49:44;;;;;;;8.83;3.13;;;-1.40;99.90;;;;;;4990850;28;20770;-74
2021/03/06 04:52:09;;;;;;;6.50;1.80;;;-1.30;99.90;;;;;;4991649;28;20236;-75
2021/03/06 04:54:35;;;;;;;5.00;2.10;;;-1.30;99.90;;;;;;4991122;28;20432;-74
2021/03/06 04:57:01;;;;;;;3.80;2.10;;;-1.20;99.90;;;;;;4990513;28;20186;-74
2021/03/06 04:59:27;;;;;;;2.30;2.10;;;-1.20;99.90;;;;;;4988377;28;20184;-74
2021/03/06 05:01:52;;;;;;;3.87;2.87;;;-1.20;99.90;;;;;;4988546;28;20942;-74
2021/03/06 05:04:18;;;;;;;2.20;1.83;;;-1.00;99.90;;;;;;4992519;28;20187;-74
2021/03/06 05:06:45;;;;;;;3.30;2.60;;;-1.00;99.90;;;;;;4991257;28;20208;-74
2021/03/06 05:09:11;;;;;;;5.60;1.90;;;-1.00;99.90;;;;;;4990913;28;20177;-74
2021/03/06 05:11:37;;;;;;;5.27;2.23;;;-0.90;99.90;;;;;;4990234;28;21001;-74
2021/03/06 05:14:03;;;;;;;2.23;2.13;;;-0.80;99.90;;;;;;4991435;28;20429;-75
2021/03/06 05:16:28;;;;;;;11.47;2.43;;;-0.80;99.90;;;;;;4991501;28;20181;-74
2021/03/06 05:18:54;;;;;;;2.60;2.20;;;-0.80;99.90;;;;;;4990625;28;20187;-74
2021/03/06 05:21:19;;;;;;;3.23;2.27;;;-0.70;99.90;;;;;;4989265;28;20541;-74
2021/03/06 05:23:45;;;;;;;4.63;2.40;;;-0.70;99.90;;;;;;4990664;28;20553;-74
2021/03/06 05:26:11;;;;;;;3.40;3.10;;;-0.60;99.90;;;;;;4989143;28;20200;-74
2021/03/06 05:28:36;;;;;;;5.07;2.10;;;-0.70;99.90;;;;;;4990980;28;20207;-74
2021/03/06 05:31:02;;;;;;;4.20;2.50;;;-0.70;99.90;;;;;;4988618;28;20206;-74
2021/03/06 05:33:27;;;;;;;2.70;2.50;;;-0.60;99.90;;;;;;4989213;28;20243;-74
2021/03/06 05:35:53;;;;;;;4.00;2.33;;;-0.50;99.90;;;;;;4989672;28;20189;-74
2021/03/06 05:38:19;;;;;;;4.33;2.50;;;-0.50;99.90;;;;;;4992340;28;20182;-74
2021/03/06 05:40:46;;;;;;;5.20;2.13;;;-0.50;99.90;;;;;;4989332;28;20182;-74
2021/03/06 05:43:13;;;;;;;17.63;2.47;;;-0.50;99.90;;;;;;4991693;28;20190;-74
2021/03/06 05:45:39;;;;;;;5.67;2.87;;;-0.50;99.90;;;;;;4996402;28;20421;-74
2021/03/06 05:48:05;;;;;;;2.70;2.50;;;-0.50;99.90;;;;;;4994774;28;20465;-74
2021/03/06 05:50:31;;;;;;;5.67;3.30;;;-0.50;99.90;;;;;;4992685;28;20679;-74
2021/03/06 05:52:58;;;;;;;4.17;2.47;;;-0.40;99.90;;;;;;4992725;28;20551;-74
2021/03/06 05:55:26;;;;;;;3.00;2.70;;;-0.40;99.90;;;;;;4992304;28;20988;-74
2021/03/06 05:57:53;;;;;;;5.87;2.53;;;-0.40;99.90;;;;;;4994839;28;20440;-74
2021/03/06 06:00:21;;;;;;;2.70;1.90;;;-0.30;99.90;;;;;;4991402;28;20447;-74
2021/03/06 06:02:47;;;;;;;4.03;2.63;;;-0.30;99.90;;;;;;4995610;28;20480;-74
2021/03/06 06:05:18;;;;;;;3.13;2.10;;;-0.30;99.90;;;;;;4993262;28;20443;-74
2021/03/06 06:07:44;;;;;;;3.40;2.30;;;-0.20;99.90;;;;;;4994993;28;20453;-74
2021/03/06 06:10:11;;;;;;;5.17;3.40;;;-0.20;99.90;;;;;;4991609;28;20619;-74
2021/03/06 06:12:37;;;;;;;6.40;3.27;;;-0.10;99.90;;;;;;4993598;28;20445;-74
2021/03/06 06:15:03;;;;;;;5.47;2.60;;;0.00;99.90;;;;;;4993346;28;20437;-74
2021/03/06 06:17:30;;;;;;;5.67;2.53;;;0.00;99.90;;;;;;4993505;28;20229;-74
2021/03/06 06:19:58;;;;;;;3.93;2.80;;;0.20;99.90;;;;;;4993660;28;20481;-75
2021/03/06 06:22:24;;;;;;;9.93;3.30;;;0.20;99.90;;;;;;4994216;28;20437;-75
2021/03/06 06:24:52;;;;;;;4.20;3.53;;;0.30;99.90;;;;;;4991125;28;20438;-75
2021/03/06 06:27:28;;;;;;;8.80;3.27;;;0.30;99.90;;;;;;4990130;28;20517;-74
2021/03/06 06:29:56;;;;;;;13.03;4.37;;;0.40;99.90;;;;;;4988013;28;20449;-75
2021/03/06 06:32:46;;;;;;;3.40;2.57;;;0.40;99.90;;;;;;4993371;28;20476;-75
2021/03/06 06:35:14;;;;;;;5.23;3.00;;;0.50;99.90;;;;;;4985704;28;21660;-75
2021/03/06 06:37:40;;;;;;;4.40;3.47;;;0.70;99.90;;;;;;4992591;28;20746;-78
2021/03/06 06:40:18;;;;;;;4.23;2.73;;;0.70;99.90;;;;;;4989983;28;20748;-80
2021/03/06 06:42:43;;;;;;;3.60;3.30;;;0.70;99.90;;;;;;4996469;28;20548;-79
2021/03/06 06:45:10;;;;;;;6.10;3.23;;;0.80;99.90;;;;;;4995873;28;20528;-77
2021/03/06 06:47:42;;;;;;;6.50;3.30;;;0.70;99.90;;;;;;4988346;28;20210;-75
2021/03/06 06:50:10;;;;;;;4.30;3.20;;;0.70;99.90;;;;;;5002208;28;20481;-75
2021/03/06 06:52:44;;;;;;;13.37;4.43;;;0.60;99.90;;;;;;4990125;28;21081;-76
2021/03/06 06:55:14;;;;;;;5.97;3.73;;;0.80;99.90;;;;;;4990625;28;20827;-75
2021/03/06 06:57:56;;;;;;;8.97;3.67;;;0.90;99.90;;;;;;4998749;28;20849;-76
2021/03/06 07:00:22;;;;;;;5.83;3.53;;;1.10;99.90;;;;;;4986715;28;20446;-77
2021/03/06 07:02:53;;;;;;;3.93;3.63;;;1.20;99.90;;;;;;4983967;28;20454;-75
2021/03/06 07:05:30;;;;;;;5.23;3.20;;;1.20;99.90;;;;;;4989035;28;20191;-75
2021/03/06 07:08:00;;;;;;;3.40;3.07;;;1.20;99.90;;;;;;4987360;28;20452;-75
2021/03/06 07:10:44;;;;;;;4.73;3.20;;;1.20;99.90;;;;;;4986451;28;20447;-76
2021/03/06 07:13:11;;;;;;;8.30;4.10;;;1.20;99.90;;;;;;4986856;28;20496;-76
2021/03/06 07:15:41;;;;;;;13.73;4.50;;;1.30;99.90;;;;;;4985332;28;20760;-76
2021/03/06 07:18:09;;;;;;;3.70;2.83;;;1.30;99.90;;;;;;4987772;28;20450;-76
2021/03/06 07:20:37;;;;;;;10.10;3.80;;;1.30;99.90;;;;;;4985219;28;20526;-75
2021/03/06 07:23:23;;;;;;;7.57;3.90;;;1.30;99.90;;;;;;4987571;28;20517;-76
2021/03/06 07:25:50;;;;;;;4.03;3.20;;;1.50;99.90;;;;;;4984500;28;20445;-75
2021/03/06 07:28:16;;;;;;;4.80;3.83;;;1.50;99.90;;;;;;4984769;28;20520;-76
2021/03/06 07:30:42;;;;;;;4.10;3.70;;;1.60;99.90;;;;;;4984035;28;20540;-76
2021/03/06 07:33:11;;;;;;;3.47;3.10;;;1.70;99.90;;;;;;4984196;28;20196;-75
2021/03/06 07:35:39;;;;;;;5.67;2.80;;;1.70;99.90;;;;;;4984866;28;20599;-75
2021/03/06 07:38:07;;;;;;;6.30;3.07;;;1.70;99.90;;;;;;4984467;28;20782;-76
2021/03/06 07:40:39;;;;;;;3.40;3.10;;;1.80;99.90;;;;;;4984325;28;20450;-77
2021/03/06 07:43:12;;;;;;;3.30;3.03;;;1.90;99.90;;;;;;4985294;28;20465;-76
2021/03/06 07:45:42;;;;;;;5.10;2.60;;;2.00;99.90;;;;;;4985698;28;20436;-76
2021/03/06 07:48:11;;;;;;;2.97;2.23;;;2.10;99.90;;;;;;4982975;28;20819;-76
2021/03/06 07:50:39;;;;;;;4.30;2.90;;;2.10;99.90;;;;;;4981071;28;20504;-76
2021/03/06 07:53:06;;;;;;;7.80;3.30;;;2.10;99.90;;;;;;4979688;28;20438;-76
2021/03/06 07:55:33;;;;;;;7.40;2.80;;;2.10;99.90;;;;;;4983085;28;20913;-76
2021/03/06 07:58:00;;;;;;;5.80;3.50;;;2.20;99.90;;;;;;4984588;28;20435;-76
2021/03/06 08:00:43;;;;;;;7.40;3.90;;;2.40;99.90;;;;;;4980895;28;20436;-76
2021/03/06 08:03:24;;;;;;;9.97;2.80;;;2.40;99.90;;;;;;4981772;28;20943;-76
2021/03/06 08:05:53;;;;;;;12.13;4.10;;;2.40;99.90;;;;;;4984153;28;20534;-76
2021/03/06 08:08:31;;;;;;;3.30;3.00;;;2.50;99.90;;;;;;4983115;28;20465;-77
2021/03/06 08:11:16;;;;;;;5.90;3.30;;;2.50;99.90;;;;;;4980837;28;20441;-77
2021/03/06 08:13:47;;;;;;;4.90;3.60;;;2.50;99.90;;;;;;4988116;28;20482;-76
2021/03/06 08:16:22;;;;;;;4.50;2.60;;;2.50;99.90;;;;;;4988741;28;20479;-76
2021/03/06 08:18:55;;;;;;;8.03;3.43;;;2.60;99.90;;;;;;4982927;28;20525;-75
2021/03/06 08:21:32;;;;;;;3.60;2.80;;;2.60;99.90;;;;;;4981847;28;20433;-75
2021/03/06 08:24:15;;;;;;;5.23;3.07;;;2.60;99.90;;;;;;4987891;28;20869;-76
2021/03/06 08:27:02;;;;;;;3.10;2.90;;;2.60;99.90;;;;;;4978595;28;21135;-75
2021/03/06 08:29:28;;;;;;;3.60;3.30;;;2.60;99.90;;;;;;4980829;28;21142;-76
2021/03/06 08:32:01;;;;;;;10.97;3.73;;;2.60;99.90;;;;;;4986585;28;20440;-77
2021/03/06 08:34:50;;;;;;;3.27;3.00;;;2.60;99.90;;;;;;4984264;28;20414;-79
2021/03/06 08:37:22;;;;;;;6.57;3.70;;;2.60;99.90;;;;;;4984023;28;20445;-80
2021/03/06 08:39:58;;;;;;;4.73;4.23;;;2.50;99.90;;;;;;4984154;28;20443;-77
2021/03/06 08:42:26;;;;;;;3.83;3.07;;;2.50;99.90;;;;;;4982377;28;20742;-78
2021/03/06 08:44:53;;;;;;;3.23;2.93;;;2.50;99.90;;;;;;4988198;28;20439;-78
2021/03/06 08:47:24;;;;;;;12.80;3.17;;;2.60;99.90;;;;;;4982598;28;20457;-78
2021/03/06 08:49:58;;;;;;;3.07;2.73;;;2.60;99.90;;;;;;4985488;28;20900;-79
2021/03/06 08:52:26;;;;;;;3.00;2.60;;;2.60;99.90;;;;;;4984028;28;20428;-79
2021/03/06 08:54:52;;;;;;;6.53;2.47;;;2.70;99.90;;;;;;4987485;28;20848;-79
2021/03/06 08:57:24;;;;;;;6.87;2.97;;;2.70;99.90;;;;;;4983525;28;20526;-79
2021/03/06 08:59:52;;;;;;;6.50;2.90;;;2.80;99.90;;;;;;4984660;28;20183;-79
2021/03/06 09:02:26;;;;;;;3.27;2.93;;;3.00;99.90;;;;;;4989564;28;20433;-78
2021/03/06 09:05:17;;;;;;;5.50;3.33;;;3.00;99.90;;;;;;4988511;28;20436;-79
2021/03/06 09:07:55;;;;;;;4.10;2.57;;;3.00;99.90;;;;;;4990515;28;20801;-79
2021/03/06 09:10:28;;;;;;;4.33;2.93;;;3.10;99.90;;;;;;4978299;28;20536;-77
2021/03/06 09:13:01;;;;;;;7.97;3.10;;;3.00;99.90;;;;;;4980472;28;20499;-75
2021/03/06 09:15:33;;;;;;;3.90;2.60;;;3.10;99.90;;;;;;4987699;28;20511;-76
2021/03/06 09:17:59;;;;;;;4.20;3.50;;;3.10;99.90;;;;;;4984643;28;20473;-77
2021/03/06 09:20:29;;;;;;;4.97;3.50;;;3.20;99.90;;;;;;4988082;28;20430;-77
2021/03/06 09:22:55;;;;;;;3.73;2.60;;;3.30;99.90;;;;;;4984466;28;20830;-76
2021/03/06 09:25:32;;;;;;;4.33;3.20;;;3.30;99.90;;;;;;4988464;28;20448;-77
2021/03/06 09:27:59;;;;;;;4.90;3.13;;;3.30;99.90;;;;;;4982917;28;20214;-76
2021/03/06 09:30:37;;;;;;;7.43;4.13;;;3.30;99.90;;;;;;4985607;28;20545;-76
2021/03/06 09:33:04;;;;;;;6.60;3.13;;;3.20;99.90;;;;;;4980785;28;20804;-76
2021/03/06 09:35:30;;;;;;;3.67;2.90;;;3.10;99.90;;;;;;4977558;28;20445;-77
2021/03/06 09:38:07;;;;;;;4.17;3.80;;;3.30;99.90;;;;;;4981454;28;20752;-76
2021/03/06 09:40:42;;;;;;;6.87;2.90;;;3.30;99.90;;;;;;4988588;28;20193;-76
2021/03/06 09:43:11;;;;;;;7.00;3.50;;;3.30;99.90;;;;;;4979114;28;20456;-76
2021/03/06 09:45:37;;;;;;;4.70;4.17;;;3.40;99.90;;;;;;4977477;28;20453;-75
2021/03/06 09:48:07;;;;;;;8.73;5.63;;;3.50;99.90;;;;;;4986398;28;20464;-76
2021/03/06 09:50:33;;;;;;;4.27;3.90;;;3.50;99.90;;;;;;4987926;28;20196;-76
2021/03/06 09:53:20;;;;;;;7.57;5.33;;;3.50;99.90;;;;;;4988824;28;21023;-76
2021/03/06 09:55:46;;;;;;;5.17;3.50;;;3.60;99.90;;;;;;4987437;28;20486;-75
2021/03/06 09:58:23;;;;;;;12.03;4.30;;;3.70;99.90;;;;;;4993643;28;20456;-76
2021/03/06 10:00:51;;;;;;;6.10;5.10;;;3.80;99.90;;;;;;4991654;28;20439;-76
2021/03/06 10:03:33;;;;;;;4.37;3.97;;;4.10;99.90;;;;;;4991344;28;20535;-75
2021/03/06 10:06:01;;;;;;;5.23;3.70;;;4.10;99.90;;;;;;4992701;28;20511;-76
2021/03/06 10:08:29;;;;;;;4.63;3.80;;;4.10;99.90;;;;;;4993107;28;20453;-75
2021/03/06 10:10:57;;;;;;;5.20;4.70;;;4.10;99.90;;;;;;4984063;28;20463;-76
2021/03/06 10:13:24;;;;;;;5.37;3.70;;;4.20;99.90;;;;;;4987555;28;20535;-76
2021/03/06 10:15:51;;;;;;;4.97;3.90;;;4.20;99.90;;;;;;4993393;28;20472;-76
2021/03/06 10:18:17;;;;;;;4.97;4.07;;;4.20;99.90;;;;;;4990653;28;20440;-76
2021/03/06 10:20:43;;;;;;;4.00;3.13;;;4.20;99.90;;;;;;4986950;28;20462;-76
2021/03/06 10:23:10;;;;;;;5.30;4.07;;;4.20;99.90;;;;;;4989343;28;20183;-76
2021/03/06 10:25:36;;;;;;;6.33;3.63;;;4.10;99.90;;;;;;4988975;28;20237;-76
2021/03/06 10:28:11;;;;;;;13.17;5.57;;;4.10;99.90;;;;;;4989115;28;20462;-75
2021/03/06 10:30:39;;;;;;;6.10;3.43;;;4.10;99.90;;;;;;4986866;28;20438;-75
2021/03/06 10:33:06;;;;;;;3.93;3.53;;;4.10;99.90;;;;;;4986166;28;20904;-75
2021/03/06 10:35:43;;;;;;;5.40;4.37;;;4.10;99.90;;;;;;4989574;28;20520;-76
2021/03/06 10:38:24;;;;;;;3.83;3.40;;;4.20;99.90;;;;;;4989049;28;20422;-76
2021/03/06 10:40:55;;;;;;;8.10;3.10;;;4.20;99.90;;;;;;4988885;28;20431;-76
2021/03/06 10:43:30;;;;;;;4.20;3.63;;;4.20;99.90;;;;;;4986794;28;20426;-75
2021/03/06 10:46:18;;;;;;;6.40;4.00;;;4.40;99.90;;;;;;4988194;28;20433;-75
2021/03/06 10:48:53;;;;;;;6.47;3.10;;;4.50;99.90;;;;;;4978973;28;20461;-75
2021/03/06 10:51:20;;;;;;;4.07;3.77;;;4.60;99.90;;;;;;4988127;28;20433;-75
2021/03/06 10:54:06;;;;;;;5.00;3.23;;;4.70;99.90;;;;;;4982842;28;20521;-75
2021/03/06 10:56:32;;;;;;;10.40;3.83;;;4.80;99.90;;;;;;4983872;28;20429;-76
2021/03/06 10:58:58;;;;;;;4.03;3.67;;;5.00;99.90;;;;;;4989580;28;20430;-75
2021/03/06 11:01:24;;;;;;;3.57;3.27;;;5.10;99.90;;;;;;4987652;28;20437;-75
2021/03/06 11:03:51;;;;;;;3.00;2.80;;;5.20;99.90;;;;;;4989952;28;20187;-75
2021/03/06 11:06:19;;;;;;;3.50;2.97;;;5.20;99.90;;;;;;4988757;28;20862;-75
2021/03/06 11:08:58;;;;;;;5.97;4.23;;;5.30;99.90;;;;;;4991130;28;20440;-76
2021/03/06 11:11:25;;;;;;;4.90;4.40;;;5.30;99.90;;;;;;4991902;28;20422;-74
2021/03/06 11:13:50;;;;;;;4.90;3.40;;;5.20;99.90;;;;;;4984699;28;20422;-76
2021/03/06 11:16:16;;;;;;;8.47;3.40;;;5.20;99.90;;;;;;4983911;28;20504;-75
2021/03/06 11:18:43;;;;;;;3.63;2.87;;;5.00;99.90;;;;;;4985060;28;21026;-75
2021/03/06 11:21:14;;;;;;;3.13;2.80;;;5.10;99.90;;;;;;4991650;28;20877;-75
2021/03/06 11:23:41;;;;;;;6.40;2.57;;;5.00;99.90;;;;;;4991303;28;20428;-75
2021/03/06 11:26:07;;;;;;;9.53;2.97;;;4.90;99.90;;;;;;4990039;28;20952;-75
2021/03/06 11:28:33;;;;;;;2.83;2.50;;;4.90;99.90;;;;;;4989741;28;20469;-75
2021/03/06 11:31:04;;;;;;;3.03;2.80;;;4.80;99.90;;;;;;4988801;28;20530;-74
2021/03/06 11:33:29;;;;;;;3.43;3.17;;;4.70;99.90;;;;;;4986953;28;20427;-75
2021/03/06 11:35:55;;;;;;;4.67;2.60;;;4.80;99.90;;;;;;4988165;28;20435;-75
2021/03/06 11:38:24;;;;;;;3.43;2.73;;;4.80;99.90;;;;;;4988904;28;20277;-75
2021/03/06 11:40:52;;;;;;;5.57;2.90;;;4.90;99.90;;;;;;4991325;28;20517;-75
2021/03/06 11:43:19;;;;;;;3.37;3.07;;;5.00;99.90;;;;;;4989963;28;20418;-75
2021/03/06 11:45:45;;;;;;;4.10;2.43;;;5.10;99.90;;;;;;4989230;28;20521;-75
2021/03/06 11:48:11;;;;;;;3.07;2.77;;;5.30;99.90;;;;;;4985262;28;20835;-75
2021/03/06 11:50:40;;;;;;;2.70;2.47;;;5.40;99.90;;;;;;4987782;28;20453;-75
2021/03/06 11:53:07;;;;;;;10.97;3.37;;;5.40;99.90;;;;;;4990769;28;20437;-75
2021/03/06 11:55:34;;;;;;;3.90;3.37;;;5.40;99.90;;;;;;4990347;28;20462;-74
2021/03/06 11:58:00;;;;;;;3.60;2.70;;;5.30;99.90;;;;;;4989597;28;20437;-75
2021/03/06 12:00:28;;;;;;;2.27;2.13;;;5.30;99.90;;;;;;4988281;28;20461;-74
2021/03/06 12:02:54;;;;;;;1.97;1.87;;;5.30;99.90;;;;;;4990567;28;20797;-74
2021/03/06 12:05:19;;;;;;;3.33;1.73;;;5.20;99.90;;;;;;4989060;28;20445;-75
2021/03/06 12:07:46;;;;;;;1.70;1.60;;;5.30;99.90;;;;;;4991656;28;20528;-74
2021/03/06 12:10:16;;;;;;;2.13;1.40;;;5.40;99.90;;;;;;4990100;28;20624;-75
2021/03/06 12:12:44;;;;;;;4.20;1.23;;;5.40;99.90;;;;;;4988119;28;20496;-75
2021/03/06 12:15:12;;;;;;;1.00;1.00;;;5.50;99.90;;;;;;4988656;28;20437;-75
2021/03/06 12:17:38;;;;;;;2.20;1.10;;;5.60;99.90;;;;;;4987642;28;20466;-74
2021/03/06 12:20:06;;;;;;;0.73;0.73;;;5.60;99.90;;;;;;4987011;28;20438;-75
2021/03/06 12:22:32;;;;;;;1.47;1.37;;;5.90;99.90;;;;;;4989016;28;20437;-75
2021/03/06 12:24:57;;;;;;;1.37;1.27;;;6.20;99.90;;;;;;4988973;28;20536;-75
2021/03/06 12:27:23;;;;;;;1.37;1.27;;;6.40;99.90;;;;;;4991781;28;20209;-74
2021/03/06 12:29:49;;;;;;;0.90;0.90;;;6.40;99.90;;;;;;4991226;28;20219;-74
2021/03/06 12:32:15;;;;;;;1.30;1.20;;;6.40;99.90;;;;;;4990428;28;20465;-74
2021/03/06 12:34:41;;;;;;;1.67;1.00;;;6.30;99.90;;;;;;4989266;28;20609;-75
2021/03/06 12:37:07;;;;;;;1.47;1.13;;;6.30;99.90;;;;;;4991127;28;20176;-75
2021/03/06 12:39:32;;;;;;;1.73;1.30;;;6.30;99.90;;;;;;4988584;28;20218;-74
2021/03/06 12:41:59;;;;;;;2.57;1.40;;;6.30;99.90;;;;;;4989479;28;20184;-75
2021/03/06 12:44:24;;;;;;;1.30;1.20;;;6.30;99.90;;;;;;4992367;28;20478;-75
2021/03/06 12:46:50;;;;;;;1.60;1.50;;;6.40;99.90;;;;;;4992386;28;20498;-75
2021/03/06 12:49:17;;;;;;;1.37;1.23;;;6.40;99.90;;;;;;4988355;28;20686;-75
2021/03/06 12:51:43;;;;;;;4.23;1.37;;;6.30;99.90;;;;;;4985735;28;20178;-74
2021/03/06 12:54:09;;;;;;;1.53;1.43;;;6.30;99.90;;;;;;4996651;28;20433;-74
2021/03/06 12:56:35;;;;;;;2.07;1.30;;;6.30;99.90;;;;;;4989936;28;20437;-75
2021/03/06 12:59:01;;;;;;;1.47;1.37;;;6.40;99.90;;;;;;4991279;28;22495;-75
2021/03/06 13:01:27;;;;;;;1.20;1.10;;;6.40;99.90;;;;;;4993212;28;20466;-74